首页
METAR-TAF:

METAR-TAF

机场 :

伏尔加格勒, 俄罗斯

纬度: 48-47N, 经度: 044-22E, 海拔: 145米

当前天气观测

该预报发布于44分钟前的01:00 UTC
风速14节,风向
温度 -16°C
湿度 84%
气压 1015 hPa
能見度: 4300
阴天层高于600英尺
(小) 米雪, 轻雾

METAR: URWW 190100Z 08007MPS 4300 -SG BR OVC006 M16/M18 Q1015 R06/120060 NOSIG RMK OBST OBSC

时间: 04:44 (01:44 UTC)

预报

该预报发布于2小时和46分钟前的22:58 UTC
预报有效从19日的 00点(UTC)到 19日的 09点(UTC)
风速17节,风向东转东北,有时为29节阵风
能見度: 3100
阴天层高于500英尺
轻雾
短暂存在
从 19日的 00点(UTC)到 19日的 09点(UTC)
风速14节,风向,有时为23节阵风
能見度: 0500
阴天层高于200英尺
(小) 米雪, 冻雾

TAF: URWW 182258Z 1900/1909 07009G15MPS 3100 BR OVC005 TEMPO 1900/1909 10007G12MPS 0500 -SG FZFG OVC002

超过4000个机场的气象观测和天气预报(METAR&TAF报告)。

可查询的气象台以黄色和红色小点在地图上表示。

将鼠标移到小点上方,可查看气象台名称。

然后点击查看天气观测和预报。

如需切换地图:点击带黑十字的绿色按钮放大地图;点击带横线的绿色按钮缩小地图;或者点击绿色箭头查看邻近地区的地图。


METAR-TAF: